Flight Track Log - Related Links

Times and Time Zones

All times are in EDT time to prevent confusion due to time zone crossing. See the SWA216 flight status page for this flight to view local times or setup timezone preferences in your user account.

Time Position Orientation Groundspeed Altitude Reporting Facility
EDT Latitude Longitude Course Direction KTS MPH feet Rate Location/Type
Sat 04:00:15 PM 26.6800 -81.7222 346° North 242 278 6,000  Level Miami Center
Sat 04:01:15 PM 26.7592 -81.7278 356° North 263 303 9,500 2,500 Climbing Miami Center
Sat 04:02:15 PM 26.8425 -81.7336 356° North 281 323 11,000 2,050 Climbing Miami Center
Sat 04:03:15 PM 26.9403 -81.7425 355° North 316 364 13,600 2,800 Climbing Miami Center
Sat 04:04:00 PM 27.1728 -81.7932 347° North  Level FlightAware Approximate
Sat 04:04:15 PM 27.0444 -81.7539 354° North 350 403 16,600  Level Miami Center
Sat 04:05:00 PM 27.2783 -81.8224 346° North  Level FlightAware Approximate
Sat 04:05:15 PM 27.1456 -81.7839 345° North 372 428 19,000  Level Miami Center
Sat 04:06:15 PM 27.2531 -81.8186 344° North 384 442 21,400 2,350 Climbing Miami Center
Sat 04:07:15 PM 27.3728 -81.8589 343° North 402 463 23,700 2,200 Climbing Miami Center
Sat 04:08:15 PM 27.4881 -81.9014 342° North 421 484 25,800 2,000 Climbing Miami Center
Sat 04:09:15 PM 27.6056 -81.9439 342° North 429 494 27,700 1,650 Climbing Miami Center
Sat 04:10:15 PM 27.7125 -81.9839 342° North 446 513 29,100 1,150 Climbing Miami Center
Sat 04:11:15 PM 27.8347 -82.0106 349° North 454 522 30,000 528 Climbing Miami Center
Sat 04:13:28 PM 28.1058 -82.1208 340° North 432 497 30,800 964 Climbing Jacksonville Center
Sat 04:14:28 PM 28.2025 -82.2072 322° Northwest 437 503 33,100 1,900 Climbing Jacksonville Center
Sat 04:15:28 PM 28.2947 -82.2914 321° Northwest 437 503 34,600 1,450 Climbing Jacksonville Center
Sat 04:16:28 PM 28.3908 -82.3758 322° Northwest 431 496 36,000 1,400 Climbing Jacksonville Center
Sat 04:17:28 PM 28.4811 -82.4581 321° Northwest 431 496 37,400 1,000 Climbing Jacksonville Center
Sat 04:18:28 PM 28.5731 -82.5403 322° Northwest 425 489 38,000 300 Climbing Jacksonville Center
Sat 04:19:28 PM 28.6672 -82.6253 322° Northwest 425 489 38,000  Level Jacksonville Center
Sat 04:20:28 PM 28.7592 -82.6961 326° Northwest 420 483 38,000  Level Jacksonville Center
Sat 04:21:28 PM 28.8594 -82.7669 328° Northwest 420 483 38,000  Level Jacksonville Center
Sat 04:22:28 PM 28.9575 -82.8403 327° Northwest 420 483 38,000  Level Jacksonville Center
Sat 04:23:28 PM 29.0556 -82.9117 328° Northwest 420 483 38,000  Level Jacksonville Center
Sat 04:24:28 PM 29.1539 -82.9831 328° Northwest 420 483 38,000  Level Jacksonville Center
Sat 04:25:28 PM 29.2517 -83.0544 328° Northwest 420 483 38,000  Level Jacksonville Center
Sat 04:26:28 PM 29.3478 -83.1261 327° Northwest 420 483 38,000  Level Jacksonville Center
Sat 04:27:28 PM 29.4478 -83.1978 328° Northwest 420 483 38,000  Level Jacksonville Center
Sat 04:28:28 PM 29.5436 -83.2722 326° Northwest 421 484 38,000  Level Jacksonville Center
Sat 04:29:28 PM 29.6414 -83.3442 327° Northwest 421 484 38,000  Level Jacksonville Center
Sat 04:30:28 PM 29.7414 -83.4164 328° Northwest 421 484 38,000  Level Jacksonville Center
Sat 04:31:28 PM 29.8392 -83.4889 327° Northwest 421 484 38,000  Level Jacksonville Center
Sat 04:32:28 PM 29.9369 -83.5589 328° Northwest 421 484 38,000  Level Jacksonville Center
Sat 04:33:28 PM 30.0347 -83.6339 326° Northwest 416 479 38,000  Level Jacksonville Center
Sat 04:34:28 PM 30.1303 -83.7067 327° Northwest 416 479 38,000  Level Jacksonville Center
Sat 04:35:28 PM 30.2281 -83.7772 328° Northwest 416 479 38,000  Level Jacksonville Center
Sat 04:36:28 PM 30.3153 -83.8431 327° Northwest 416 479 38,000  Level Jacksonville Center
Sat 04:37:28 PM 30.4128 -83.9164 327° Northwest 416 479 38,000  Level Jacksonville Center
Sat 04:38:28 PM 30.5103 -83.9922 326° Northwest 421 484 38,000  Level Jacksonville Center
Sat 04:39:28 PM 30.6161 -84.0753 326° Northwest 416 479 38,000  Level Jacksonville Center
Sat 04:40:28 PM 30.7133 -84.1467 328° Northwest 421 484 38,000  Level Jacksonville Center
Sat 04:41:28 PM 30.8128 -84.2231 327° Northwest 421 484 38,000  Level Jacksonville Center
Sat 04:42:28 PM 30.9122 -84.2994 327° Northwest 421 484 38,000  Level Jacksonville Center
Sat 04:43:28 PM 31.0075 -84.3711 327° Northwest 421 484 38,000  Level Jacksonville Center
Sat 04:44:28 PM 31.1047 -84.4478 326° Northwest 421 484 38,000  Level Jacksonville Center
Sat 04:45:28 PM 31.2039 -84.5200 328° Northwest 421 484 38,000  Level Jacksonville Center
Sat 04:46:28 PM 31.3011 -84.5969 326° Northwest 421 484 38,000  Level Jacksonville Center
Sat 04:47:28 PM 31.4003 -84.6719 327° Northwest 421 484 38,000  Level Jacksonville Center
Sat 04:49:41 PM 31.6125 -84.8386 326° Northwest 417 480 38,000  Level Atlanta Center
Sat 04:50:41 PM 31.7100 -84.9153 326° Northwest 422 486 38,000  Level Atlanta Center
Sat 04:51:41 PM 31.8078 -84.9869 328° Northwest 415 478 38,000  Level Atlanta Center
Sat 04:52:41 PM 31.9031 -85.0639 326° Northwest 415 478 38,000  Level Atlanta Center
Sat 04:53:41 PM 31.9797 -85.1258 326° Northwest 415 478 38,000  Level Atlanta Center
Sat 04:54:41 PM 32.0958 -85.2133 327° Northwest 422 486 38,000  Level Atlanta Center
Sat 04:55:41 PM 32.1911 -85.2881 326° Northwest 417 480 38,000  Level Atlanta Center
Sat 04:56:41 PM 32.2842 -85.3631 326° Northwest 417 480 38,000  Level Atlanta Center
Sat 04:57:41 PM 32.3836 -85.4383 327° Northwest 417 480 38,000  Level Atlanta Center
Sat 04:58:41 PM 32.4831 -85.5164 326° Northwest 422 486 38,000  Level Atlanta Center
Sat 04:59:41 PM 32.5781 -85.5942 325° Northwest 422 486 38,000  Level Atlanta Center
Sat 05:00:41 PM 32.6750 -85.6700 327° Northwest 422 486 38,000  Level Atlanta Center
Sat 05:01:41 PM 32.7722 -85.7483 326° Northwest 422 486 38,000  Level Atlanta Center
Sat 05:02:41 PM 32.8650 -85.8244 325° Northwest 422 486 38,000  Level Atlanta Center
Sat 05:03:41 PM 32.9619 -85.9006 327° Northwest 422 486 38,000  Level Atlanta Center
Sat 05:04:41 PM 33.0569 -85.9769 326° Northwest 422 486 38,000  Level Atlanta Center
Sat 05:05:41 PM 33.1331 -86.0431 324° Northwest 422 486 38,000  Level Atlanta Center
Sat 05:06:41 PM 33.2464 -86.1328 326° Northwest 416 479 38,000  Level Atlanta Center
Sat 05:07:41 PM 33.3411 -86.2097 326° Northwest 416 479 38,000  Level Atlanta Center
Sat 05:08:41 PM 33.4378 -86.2867 326° Northwest 416 479 38,000  Level Atlanta Center
Sat 05:09:41 PM 33.5322 -86.3664 325° Northwest 421 484 38,000  Level Atlanta Center
Sat 05:10:41 PM 33.6164 -86.4361 325° Northwest 421 484 38,000  Level Atlanta Center
Sat 05:11:41 PM 33.7150 -86.5136 327° Northwest 421 484 38,000  Level Atlanta Center
Sat 05:12:41 PM 33.8225 -86.5717 336° Northwest 421 484 38,000  Level Atlanta Center
Sat 05:13:41 PM 33.9319 -86.6325 335° Northwest 421 484 38,000  Level Atlanta Center
Sat 05:15:21 PM 34.0942 -86.7881 322° Northwest 440 506 38,000  Level Memphis Center
Sat 05:16:21 PM 34.1700 -86.8878 313° West 423 487 38,000  Level Memphis Center
Sat 05:17:21 PM 34.2311 -86.9858 307° West 417 480 38,000  Level Memphis Center
Sat 05:18:21 PM 34.3050 -87.0936 310° West 409 471 38,000  Level Memphis Center
Sat 05:19:21 PM 34.3828 -87.1911 314° West 404 465 38,000  Level Memphis Center
Sat 05:20:21 PM 34.4764 -87.2658 327° Northwest 398 458 38,000  Level Memphis Center
Sat 05:21:21 PM 34.5700 -87.3406 327° Northwest 407 468 38,000  Level Memphis Center
Sat 05:22:21 PM 34.6767 -87.4328 325° Northwest 418 481 38,000  Level Memphis Center
Sat 05:23:21 PM 34.7722 -87.5078 327° Northwest 418 481 38,000  Level Memphis Center
Sat 05:24:21 PM 34.8722 -87.5906 326° Northwest 428 493 38,000  Level Memphis Center
Sat 05:25:21 PM 34.9678 -87.6658 327° Northwest 422 486 38,000  Level Memphis Center
Sat 05:26:21 PM 35.0675 -87.7489 326° Northwest 422 486 38,000  Level Memphis Center
Sat 05:27:21 PM 35.1567 -87.8197 327° Northwest 429 494 38,000  Level Memphis Center
Sat 05:28:21 PM 35.2542 -87.9008 326° Northwest 429 494 38,000  Level Memphis Center
Sat 05:29:21 PM 35.3517 -87.9794 327° Northwest 429 494 38,000  Level Memphis Center
Sat 05:30:21 PM 35.4514 -88.0658 325° Northwest 437 503 38,000  Level Memphis Center
Sat 05:31:21 PM 35.5486 -88.1472 326° Northwest 432 497 38,000  Level Memphis Center
Sat 05:32:21 PM 35.6481 -88.2211 329° Northwest 427 491 38,000  Level Memphis Center
Sat 05:33:21 PM 35.7494 -88.3056 326° Northwest 432 497 38,000  Level Memphis Center
Sat 05:34:21 PM 35.8469 -88.3903 325° Northwest 432 497 38,000  Level Memphis Center
Sat 05:35:22 PM 35.9481 -88.4672 328° Northwest 432 497 38,000  Level Memphis Center
Sat 05:36:21 PM 36.0575 -88.5314 335° Northwest 427 491 38,000  Level Memphis Center
Sat 05:37:21 PM 36.1669 -88.5958 335° Northwest 427 491 38,000  Level Memphis Center
Sat 05:38:21 PM 36.2783 -88.6603 335° Northwest 433 498 38,000  Level Memphis Center
Sat 05:39:21 PM 36.3875 -88.7278 334° Northwest 433 498 38,000  Level Memphis Center
Sat 05:40:21 PM 36.4969 -88.7925 335° Northwest 428 493 38,000  Level Memphis Center
Sat 05:41:21 PM 36.6122 -88.8497 338° Northwest 428 493 38,000 -250 Level Memphis Center
Sat 05:42:21 PM 36.7275 -88.9072 338° Northwest 433 498 37,500 -750 Descending Memphis Center
Sat 05:43:21 PM 36.8386 -88.9675 337° Northwest 438 504 36,500 -942 Descending Memphis Center
Sat 05:44:22 PM 36.9519 -89.0331 335° Northwest 438 504 35,600 -950 Descending Memphis Center
Sat 05:45:21 PM 37.0281 -89.1486 310° West 432 497 34,600 -781 Descending Memphis Center
Sat 05:47:11 PM 37.1300 -89.3694 300° West 421 484 33,400 -802 Descending Kansas City Center
Sat 05:48:13 PM 37.2019 -89.5203 301° West 421 484 32,300 -933 Descending Kansas City Center
Sat 05:49:26 PM 37.2986 -89.6122 323° Northwest 446 513 31,300 -978 Descending Kansas City Center
Sat 05:50:28 PM 37.4403 -89.6875 337° Northwest 458 527 30,100 -1,210 Descending Kansas City Center
Sat 05:51:30 PM 37.5536 -89.7511 336° Northwest 450 518 28,800 -1,805 Descending Kansas City Center
Sat 05:52:31 PM 37.6719 -89.8175 336° Northwest 431 496 26,400 -2,195 Descending Kansas City Center
Sat 05:53:33 PM 37.7781 -89.8747 337° Northwest 419 482 24,300 -2,098 Descending Kansas City Center
Sat 05:54:34 PM 37.8872 -89.9339 337° Northwest 405 466 22,100 -2,049 Descending Kansas City Center
Sat 05:55:36 PM 37.9878 -89.9872 337° Northwest 394 453 20,100 -1,887 Descending Kansas City Center
Sat 05:56:38 PM 38.0847 -90.0428 336° Northwest 384 442 18,200 -2,000 Descending Kansas City Center
Sat 05:57:39 PM 38.1864 -90.1006 336° Northwest 373 429 16,000 -2,049 Descending Kansas City Center
Sat 05:58:41 PM 38.2794 -90.1522 336° Northwest 367 422 14,000 -1,902 Descending Kansas City Center
Sat 05:59:42 PM 38.3686 -90.2031 336° Northwest 354 407 12,100 -1,756 Descending Kansas City Center
Sat 06:00:44 PM 38.4569 -90.2539 336° Northwest 347 399 10,400 -1,171 Descending Kansas City Center
Sat 06:01:45 PM 38.5375 -90.2989 336° Northwest 328 377 9,700 -976 Descending Kansas City Center
Sat 06:02:47 PM 38.6081 -90.3397 336° Northwest 293 337 8,400 -1,122 Descending Kansas City Center
Sat 06:03:48 PM 38.6669 -90.4014 321° Northwest 272 313 7,400 -878 Descending Kansas City Center
Sat 06:04:50 PM 38.7050 -90.4800 302° West 253 291 6,600 -878 Descending Kansas City Center
Sat 06:05:51 PM 38.7403 -90.5522 302° West 242 278 5,600 -984 Descending Kansas City Center
Sat 06:06:52 PM 38.7744 -90.6219 302° West 235 270 4,600 -976 Descending Kansas City Center
Sat 06:07:54 PM 38.8225 -90.6450 340° North 238 274 3,600 -780 Descending Kansas City Center
Sat 06:08:55 PM 38.8353 -90.5725 77° East 223 257 3,000 -293 Descending Kansas City Center
Sat 06:09:57 PM 38.8194 -90.5125 109° East 205 236 3,000 -439 Level Kansas City Center
Sat 06:10:58 PM 38.7942 -90.4614 122° Southeast 181 208 2,100 -829 Descending Kansas City Center
Sat 06:12:00 PM 38.7719 -90.4178 123° Southeast 163 188 1,300 -732 Descending Kansas City Center
Sat 06:13:01 PM 38.7533 -90.3781 121° Southeast 143 165 600 -689 Descending Kansas City Center

Login

Don't have an account? Register now (free) for customized features, flight alerts, and more!